CMA CGM Volga — 5BJR2 — position and weather

sailwx.info

Track history (hours):
 
Tides and Currents Weather Stations Pressure Air Temp Water Temp Dewpoint Dewpoint Depression Visibility Wind Speed Wind Dir Waves Ship Positions

CMA CGM Volga

Last reported at 2016-Aug-28 08:32 UTC. Time now 2016-Aug-29 03:39 UTC.
Position N 55°42' E 020°51'.

Length 184 m; draft 6.5 m.

Type: Cargo ship. MMSI: 212456000.

Date/timePositionNaut miles runAvg speedWind from/ knotsBaromVisibWave heightAir tempDewpointWater temp
2016-Aug-28 08:32N 55°42' E 020°51'0 0.0
2016-Aug-28 07:26N 55°42' E 020°51'0 0.0
2016-Aug-28 06:26N 55°42' E 020°51'0 0.0
2016-Aug-28 05:23N 55°42' E 020°51'0 0.0
2016-Aug-28 04:32N 55°42' E 020°51'0 0.0
2016-Aug-28 03:32N 55°42' E 020°51'0 0.2
2016-Aug-28 02:23N 55°42' E 020°51'0 0.0
2016-Aug-28 00:33N 55°42' E 020°51'0 0.0
2016-Aug-27 23:33N 55°42' E 020°51'9 9.1
2016-Aug-27 22:33N 55°40' E 020°36'1616.3
2016-Aug-27 21:33N 55°34' E 020°09'1615.7
2016-Aug-27 20:33N 55°28' E 019°44'1515.0
2016-Aug-27 19:34N 55°22' E 019°19'1514.8
2016-Aug-27 18:33N 55°16' E 018°56'1514.8
2016-Aug-27 17:33N 55°10' E 018°32'1514.6
2016-Aug-27 16:33N 55°04' E 018°08'1514.3
2016-Aug-27 15:29N 54°58' E 017°44'1414.5
2016-Aug-27 14:33N 54°53' E 017°22'1414.4
2016-Aug-27 13:34N 54°50' E 016°58'1714.4
2016-Aug-27 12:24N 54°47' E 016°29'1214.3
2016-Aug-27 11:34N 54°45' E 016°09'6213.9
2016-Aug-27 07:04N 54°36' E 014°22'813.8
2016-Aug-27 06:30N 54°38' E 014°09'2814.3
2016-Aug-27 04:33N 54°44' E 013°22'1814.2
2016-Aug-27 03:18N 54°43' E 012°51'1413.6
2016-Aug-27 02:15N 54°38' E 012°28'913.0
2016-Aug-27 01:33N 54°32' E 012°17'1111.6
2016-Aug-27 00:33N 54°25' E 012°01'1414.3
2016-Aug-26 23:33N 54°28' E 011°37'1414.2
2016-Aug-26 22:33N 54°34' E 011°15'1413.8
2016-Aug-26 21:33N 54°41' E 010°55'1313.4
2016-Aug-26 20:33N 54°55' E 010°53'1312.6
2016-Aug-26 19:33N 55°06' E 011°02'1412.8
2016-Aug-26 18:30N 55°20' E 011°02'3912.4
2016-Aug-26 15:19N 55°59' E 011°01'5113.4
2016-Aug-26 11:32N 56°42' E 011°49'1312.9
2016-Aug-26 10:33N 56°55' E 011°46'1313.2
2016-Aug-26 09:33N 57°07' E 011°38'1312.8
2016-Aug-26 08:32N 57°19' E 011°30'1212.1
2016-Aug-26 07:33N 57°30' E 011°19'1312.6
2016-Aug-26 06:34N 57°38' E 011°02'2713.3
2016-Aug-26 04:33N 57°46' E 010°15'1414.3
2016-Aug-26 03:33N 57°39' E 009°51'1414.3
2016-Aug-26 02:33N 57°32' E 009°29'7414.7
2016-Aug-25 21:31N 56°44' E 007°45'1515.2
2016-Aug-25 20:33N 56°31' E 007°33'3115.2
2016-Aug-25 18:29N 56°02' E 007°10'1415.2
2016-Aug-25 17:33N 55°49' E 007°00'1515.0
2016-Aug-25 16:33N 55°35' E 006°50'1514.9
2016-Aug-25 15:32N 55°21' E 006°39'1414.7
2016-Aug-25 14:33N 55°09' E 006°25'3314.9
2016-Aug-25 12:22N 54°43' E 005°52'3115.0
2016-Aug-25 10:17N 54°17' E 005°21'1114.9
2016-Aug-25 09:33N 54°08' E 005°11'1514.8
2016-Aug-25 08:33N 53°54' E 005°01'1514.6
2016-Aug-25 07:33N 53°41' E 004°52'1514.2
2016-Aug-25 06:30N 53°27' E 004°42'2613.6
2016-Aug-25 04:33N 53°03' E 004°24'1313.3
2016-Aug-25 03:33N 52°51' E 004°13'1313.2
2016-Aug-25 02:33N 52°41' E 003°60'1313.1
2016-Aug-25 01:33N 52°28' E 003°54'1313.4
2016-Aug-25 00:33N 52°15' E 003°53'1312.5
2016-Aug-24 23:33N 52°02' E 003°54'5 5.2
2016-Aug-24 22:33N 51°59' E 004°00'1 1.0
2016-Aug-24 21:26N 51°57' E 004°00'0 0.0
2016-Aug-24 20:32N 51°57' E 004°00'0 0.0
2016-Aug-24 19:29N 51°57' E 004°00'0 0.0
2016-Aug-24 17:08N 51°57' E 004°00'0 0.0
2016-Aug-24 16:26N 51°57' E 004°00'0 0.0
2016-Aug-24 15:26N 51°57' E 004°00'0 0.0
2016-Aug-24 11:32N 51°57' E 004°00'0 0.0
2016-Aug-24 10:23N 51°57' E 004°00'0 0.0
2016-Aug-24 08:26N 51°57' E 004°00'0 0.0
2016-Aug-24 07:17N 51°57' E 004°00'0 0.0
2016-Aug-24 06:08N 51°57' E 004°00'0 0.0
2016-Aug-24 04:32N 51°57' E 004°00'0 0.0
2016-Aug-24 03:32N 51°57' E 004°00'2 1.9
2016-Aug-24 02:34N 51°58' E 004°03'7 6.9
2016-Aug-24 01:33N 52°01' E 003°53'9 8.5
2016-Aug-24 00:32N 52°08' E 003°46'4 0.4
2016-Aug-23 13:32N 52°11' E 003°42'0 0.0
2016-Aug-23 12:20N 52°11' E 003°42'0 0.0
2016-Aug-23 11:20N 52°11' E 003°42'0 0.0
2016-Aug-23 10:31N 52°11' E 003°42'0 0.0
2016-Aug-23 03:29N 52°12' E 003°42'0 0.1
2016-Aug-23 00:31N 52°11' E 003°42'0 0.1
2016-Aug-22 21:20N 52°12' E 003°42'0 0.0
2016-Aug-22 16:26N 52°12' E 003°42'0 0.0
2016-Aug-22 08:22N 52°11' E 003°42'11511.5
2016-Aug-21 22:20N 53°58' E 004°54'1012.3
2016-Aug-21 21:32N 54°07' E 005°01'1212.2
2016-Aug-21 20:33N 54°17' E 005°13'7812.7
2016-Aug-21 14:22N 55°19' E 006°35'1011.9
2016-Aug-21 13:33N 55°28' E 006°44'1212.0
2016-Aug-21 12:32N 55°39' E 006°52'18211.4
2016-Aug-20 20:33N 57°48' E 010°46'1413.9
2016-Aug-20 19:33N 57°39' E 011°06'1413.7
2016-Aug-20 18:33N 57°29' E 011°24'1413.6
2016-Aug-20 17:33N 57°17' E 011°33'1413.8
2016-Aug-20 16:33N 57°04' E 011°42'1413.8
2016-Aug-20 15:32N 56°50' E 011°50'1212.7
2016-Aug-20 14:33N 56°38' E 011°46'7913.2
2016-Aug-20 08:31N 55°23' E 011°02'1212.6
2016-Aug-20 07:33N 55°10' E 011°02'1413.8
2016-Aug-20 06:33N 54°57' E 010°55'1514.7
2016-Aug-20 05:33N 54°43' E 010°47'1312.7
2016-Aug-20 04:33N 54°36' E 011°05'1414.1
2016-Aug-20 03:33N 54°31' E 011°28'1414.0
2016-Aug-20 02:33N 54°26' E 011°50'1313.1
2016-Aug-20 01:33N 54°28' E 012°12'1313.3
2016-Aug-20 00:33N 54°40' E 012°23'1413.9
2016-Aug-19 23:33N 54°47' E 012°43'1413.7
2016-Aug-19 22:34N 54°47' E 013°07'1414.0
2016-Aug-19 21:33N 54°46' E 013°32'1413.9
2016-Aug-19 20:33N 54°43' E 013°55'14613.3
2016-Aug-19 09:33N 54°57' E 018°07'1312.7
2016-Aug-19 08:34N 54°57' E 018°29'1312.8
2016-Aug-19 07:34N 54°51' E 018°48'1312.6
2016-Aug-19 06:33N 54°42' E 019°04'1312.9
2016-Aug-19 05:33N 54°30' E 019°01'1111.3
2016-Aug-19 04:33N 54°24' E 018°44'1 1.0
2016-Aug-19 03:31N 54°23' E 018°43'0 0.0
2016-Aug-19 02:31N 54°23' E 018°43'0 0.0
2016-Aug-19 01:31N 54°23' E 018°43'0 0.0
2016-Aug-19 00:31N 54°23' E 018°43'0 0.0
2016-Aug-18 23:31N 54°23' E 018°43'0 0.0
2016-Aug-18 22:28N 54°23' E 018°43'0 0.0
2016-Aug-18 21:31N 54°23' E 018°43'0 0.0
2016-Aug-18 20:31N 54°23' E 018°43'0 0.0
2016-Aug-18 19:31N 54°23' E 018°43'0 0.0
2016-Aug-18 18:31N 54°23' E 018°43'0 0.0
2016-Aug-18 17:19N 54°23' E 018°43'0 0.0
2016-Aug-18 16:31N 54°23' E 018°43'0 0.0
2016-Aug-18 15:31N 54°23' E 018°43'0 0.0
2016-Aug-18 14:31N 54°23' E 018°43'0 0.0
2016-Aug-18 13:31N 54°23' E 018°43'0 0.0
2016-Aug-18 12:31N 54°23' E 018°43'0 0.0
2016-Aug-18 11:31N 54°23' E 018°43'0 0.0
2016-Aug-18 10:31N 54°23' E 018°43'0 0.0
2016-Aug-18 09:31N 54°23' E 018°43'0 0.1
2016-Aug-18 08:33N 54°23' E 018°43'  
Track history (hours):
 
Tides and Currents Weather Stations Pressure Air Temp Water Temp Dewpoint Dewpoint Depression Visibility Wind Speed Wind Dir Waves Ship Positions

CMA CGM Volga

Last reported at 2016-Aug-28 08:32 UTC. Time now 2016-Aug-29 03:39 UTC.
Position N 55°42' E 020°51'.

Length 184 m; draft 6.5 m.

Type: Cargo ship. MMSI: 212456000.

Date/timePositionNaut miles runAvg speedWind from/ knotsBaromVisibWave heightAir tempDewpointWater temp
2016-Aug-28 08:32N 55°42' E 020°51'0 0.0
2016-Aug-28 07:26N 55°42' E 020°51'0 0.0
2016-Aug-28 06:26N 55°42' E 020°51'0 0.0
2016-Aug-28 05:23N 55°42' E 020°51'0 0.0
2016-Aug-28 04:32N 55°42' E 020°51'0 0.0
2016-Aug-28 03:32N 55°42' E 020°51'0 0.2
2016-Aug-28 02:23N 55°42' E 020°51'0 0.0
2016-Aug-28 00:33N 55°42' E 020°51'0 0.0
2016-Aug-27 23:33N 55°42' E 020°51'9 9.1
2016-Aug-27 22:33N 55°40' E 020°36'1616.3
2016-Aug-27 21:33N 55°34' E 020°09'1615.7
2016-Aug-27 20:33N 55°28' E 019°44'1515.0
2016-Aug-27 19:34N 55°22' E 019°19'1514.8
2016-Aug-27 18:33N 55°16' E 018°56'1514.8
2016-Aug-27 17:33N 55°10' E 018°32'1514.6
2016-Aug-27 16:33N 55°04' E 018°08'1514.3
2016-Aug-27 15:29N 54°58' E 017°44'1414.5
2016-Aug-27 14:33N 54°53' E 017°22'1414.4
2016-Aug-27 13:34N 54°50' E 016°58'1714.4
2016-Aug-27 12:24N 54°47' E 016°29'1214.3
2016-Aug-27 11:34N 54°45' E 016°09'6213.9
2016-Aug-27 07:04N 54°36' E 014°22'813.8
2016-Aug-27 06:30N 54°38' E 014°09'2814.3
2016-Aug-27 04:33N 54°44' E 013°22'1814.2
2016-Aug-27 03:18N 54°43' E 012°51'1413.6
2016-Aug-27 02:15N 54°38' E 012°28'913.0
2016-Aug-27 01:33N 54°32' E 012°17'1111.6
2016-Aug-27 00:33N 54°25' E 012°01'1414.3
2016-Aug-26 23:33N 54°28' E 011°37'1414.2
2016-Aug-26 22:33N 54°34' E 011°15'1413.8
2016-Aug-26 21:33N 54°41' E 010°55'1313.4
2016-Aug-26 20:33N 54°55' E 010°53'1312.6
2016-Aug-26 19:33N 55°06' E 011°02'1412.8
2016-Aug-26 18:30N 55°20' E 011°02'3912.4
2016-Aug-26 15:19N 55°59' E 011°01'5113.4
2016-Aug-26 11:32N 56°42' E 011°49'1312.9
2016-Aug-26 10:33N 56°55' E 011°46'1313.2
2016-Aug-26 09:33N 57°07' E 011°38'1312.8
2016-Aug-26 08:32N 57°19' E 011°30'1212.1
2016-Aug-26 07:33N 57°30' E 011°19'1312.6
2016-Aug-26 06:34N 57°38' E 011°02'2713.3
2016-Aug-26 04:33N 57°46' E 010°15'1414.3
2016-Aug-26 03:33N 57°39' E 009°51'1414.3
2016-Aug-26 02:33N 57°32' E 009°29'7414.7
2016-Aug-25 21:31N 56°44' E 007°45'1515.2
2016-Aug-25 20:33N 56°31' E 007°33'3115.2
2016-Aug-25 18:29N 56°02' E 007°10'1415.2
2016-Aug-25 17:33N 55°49' E 007°00'1515.0
2016-Aug-25 16:33N 55°35' E 006°50'1514.9
2016-Aug-25 15:32N 55°21' E 006°39'1414.7
2016-Aug-25 14:33N 55°09' E 006°25'3314.9
2016-Aug-25 12:22N 54°43' E 005°52'3115.0
2016-Aug-25 10:17N 54°17' E 005°21'1114.9
2016-Aug-25 09:33N 54°08' E 005°11'1514.8
2016-Aug-25 08:33N 53°54' E 005°01'1514.6
2016-Aug-25 07:33N 53°41' E 004°52'1514.2
2016-Aug-25 06:30N 53°27' E 004°42'2613.6
2016-Aug-25 04:33N 53°03' E 004°24'1313.3
2016-Aug-25 03:33N 52°51' E 004°13'1313.2
2016-Aug-25 02:33N 52°41' E 003°60'1313.1
2016-Aug-25 01:33N 52°28' E 003°54'1313.4
2016-Aug-25 00:33N 52°15' E 003°53'1312.5
2016-Aug-24 23:33N 52°02' E 003°54'5 5.2
2016-Aug-24 22:33N 51°59' E 004°00'1 1.0
2016-Aug-24 21:26N 51°57' E 004°00'0 0.0
2016-Aug-24 20:32N 51°57' E 004°00'0 0.0
2016-Aug-24 19:29N 51°57' E 004°00'0 0.0
2016-Aug-24 17:08N 51°57' E 004°00'0 0.0
2016-Aug-24 16:26N 51°57' E 004°00'0 0.0
2016-Aug-24 15:26N 51°57' E 004°00'0 0.0
2016-Aug-24 11:32N 51°57' E 004°00'0 0.0
2016-Aug-24 10:23N 51°57' E 004°00'0 0.0
2016-Aug-24 08:26N 51°57' E 004°00'0 0.0
2016-Aug-24 07:17N 51°57' E 004°00'0 0.0
2016-Aug-24 06:08N 51°57' E 004°00'0 0.0
2016-Aug-24 04:32N 51°57' E 004°00'0 0.0
2016-Aug-24 03:32N 51°57' E 004°00'2 1.9
2016-Aug-24 02:34N 51°58' E 004°03'7 6.9
2016-Aug-24 01:33N 52°01' E 003°53'9 8.5
2016-Aug-24 00:32N 52°08' E 003°46'4 0.4
2016-Aug-23 13:32N 52°11' E 003°42'0 0.0
2016-Aug-23 12:20N 52°11' E 003°42'0 0.0
2016-Aug-23 11:20N 52°11' E 003°42'0 0.0
2016-Aug-23 10:31N 52°11' E 003°42'0 0.0
2016-Aug-23 03:29N 52°12' E 003°42'0 0.1
2016-Aug-23 00:31N 52°11' E 003°42'0 0.1
2016-Aug-22 21:20N 52°12' E 003°42'0 0.0
2016-Aug-22 16:26N 52°12' E 003°42'0 0.0
2016-Aug-22 08:22N 52°11' E 003°42'11511.5
2016-Aug-21 22:20N 53°58' E 004°54'1012.3
2016-Aug-21 21:32N 54°07' E 005°01'1212.2
2016-Aug-21 20:33N 54°17' E 005°13'7812.7
2016-Aug-21 14:22N 55°19' E 006°35'1011.9
2016-Aug-21 13:33N 55°28' E 006°44'1212.0
2016-Aug-21 12:32N 55°39' E 006°52'18211.4
2016-Aug-20 20:33N 57°48' E 010°46'1413.9
2016-Aug-20 19:33N 57°39' E 011°06'1413.7
2016-Aug-20 18:33N 57°29' E 011°24'1413.6
2016-Aug-20 17:33N 57°17' E 011°33'1413.8
2016-Aug-20 16:33N 57°04' E 011°42'1413.8
2016-Aug-20 15:32N 56°50' E 011°50'1212.7
2016-Aug-20 14:33N 56°38' E 011°46'7913.2
2016-Aug-20 08:31N 55°23' E 011°02'1212.6
2016-Aug-20 07:33N 55°10' E 011°02'1413.8
2016-Aug-20 06:33N 54°57' E 010°55'1514.7
2016-Aug-20 05:33N 54°43' E 010°47'1312.7
2016-Aug-20 04:33N 54°36' E 011°05'1414.1
2016-Aug-20 03:33N 54°31' E 011°28'1414.0
2016-Aug-20 02:33N 54°26' E 011°50'1313.1
2016-Aug-20 01:33N 54°28' E 012°12'1313.3
2016-Aug-20 00:33N 54°40' E 012°23'1413.9
2016-Aug-19 23:33N 54°47' E 012°43'1413.7
2016-Aug-19 22:34N 54°47' E 013°07'1414.0
2016-Aug-19 21:33N 54°46' E 013°32'1413.9
2016-Aug-19 20:33N 54°43' E 013°55'14613.3
2016-Aug-19 09:33N 54°57' E 018°07'1312.7
2016-Aug-19 08:34N 54°57' E 018°29'1312.8
2016-Aug-19 07:34N 54°51' E 018°48'1312.6
2016-Aug-19 06:33N 54°42' E 019°04'1312.9
2016-Aug-19 05:33N 54°30' E 019°01'1111.3
2016-Aug-19 04:33N 54°24' E 018°44'1 1.0
2016-Aug-19 03:31N 54°23' E 018°43'0 0.0
2016-Aug-19 02:31N 54°23' E 018°43'0 0.0
2016-Aug-19 01:31N 54°23' E 018°43'0 0.0
2016-Aug-19 00:31N 54°23' E 018°43'0 0.0
2016-Aug-18 23:31N 54°23' E 018°43'0 0.0
2016-Aug-18 22:28N 54°23' E 018°43'0 0.0
2016-Aug-18 21:31N 54°23' E 018°43'0 0.0
2016-Aug-18 20:31N 54°23' E 018°43'0 0.0
2016-Aug-18 19:31N 54°23' E 018°43'0 0.0
2016-Aug-18 18:31N 54°23' E 018°43'0 0.0
2016-Aug-18 17:19N 54°23' E 018°43'0 0.0
2016-Aug-18 16:31N 54°23' E 018°43'0 0.0
2016-Aug-18 15:31N 54°23' E 018°43'0 0.0
2016-Aug-18 14:31N 54°23' E 018°43'0 0.0
2016-Aug-18 13:31N 54°23' E 018°43'0 0.0
2016-Aug-18 12:31N 54°23' E 018°43'0 0.0
2016-Aug-18 11:31N 54°23' E 018°43'0 0.0
2016-Aug-18 10:31N 54°23' E 018°43'0 0.0
2016-Aug-18 09:31N 54°23' E 018°43'0 0.1
2016-Aug-18 08:33N 54°23' E 018°43'  

Dump ship's entire track history